createdAt,value
2023-04-13T00:02:24.412Z,40.77
2023-04-13T00:04:51.414Z,38.57
2023-04-13T00:07:18.792Z,44.33
2023-04-13T00:09:50.772Z,40.77
2023-04-13T00:12:21.311Z,43.97
2023-04-13T00:14:50.937Z,46.13
2023-04-13T00:17:20.220Z,41.07
2023-04-13T00:19:47.988Z,40.13
2023-04-13T00:22:17.919Z,40.27
2023-04-13T00:24:44.749Z,45.10
2023-04-13T00:27:12.173Z,46.67
2023-04-13T00:29:38.959Z,49.33
2023-04-13T00:32:05.790Z,47.47
2023-04-13T00:34:32.573Z,42.63
2023-04-13T00:37:02.256Z,38.63
2023-04-13T00:39:31.232Z,40.20
2023-04-13T00:42:02.176Z,37.47
2023-04-13T00:44:30.797Z,38.40
2023-04-13T00:46:57.598Z,40.60
2023-04-13T00:49:24.353Z,42.90
2023-04-13T00:51:51.183Z,43.77
2023-04-13T00:54:18.640Z,43.00
2023-04-13T00:56:45.441Z,42.93
2023-04-13T00:59:12.513Z,39.67
2023-04-13T01:01:50.623Z,41.07
2023-04-13T01:04:21.153Z,40.97
2023-04-13T01:07:20.979Z,35.37
2023-04-13T01:09:53.200Z,37.67
2023-04-13T01:12:55.261Z,39.83
2023-04-13T01:15:22.052Z,45.87
2023-04-13T01:17:52.345Z,39.10
2023-04-13T01:20:20.354Z,41.80
2023-04-13T01:22:57.795Z,37.67
2023-04-13T01:25:47.290Z,46.97
2023-04-13T01:28:18.280Z,38.03
2023-04-13T01:30:49.205Z,37.50
2023-04-13T01:33:16.374Z,38.67
2023-04-13T01:35:43.468Z,40.50
2023-04-13T01:38:14.384Z,39.97
2023-04-13T01:40:41.902Z,42.87
2023-04-13T01:43:08.749Z,43.13
2023-04-13T01:45:46.002Z,39.03
2023-04-13T01:48:22.511Z,38.83
2023-04-13T01:50:54.796Z,42.67
2023-04-13T01:53:34.553Z,40.77
2023-04-13T01:56:01.324Z,41.10
2023-04-13T01:58:28.266Z,37.67
2023-04-13T02:00:55.874Z,35.30
2023-04-13T02:03:25.445Z,39.00
2023-04-13T02:05:52.280Z,37.43
2023-04-13T02:08:20.665Z,41.53
2023-04-13T02:10:50.197Z,39.70
2023-04-13T02:13:17.022Z,38.37
2023-04-13T02:15:46.962Z,38.13
2023-04-13T02:18:13.760Z,41.53
2023-04-13T02:20:44.003Z,36.80
2023-04-13T02:23:17.912Z,36.70
2023-04-13T02:25:47.114Z,40.13
2023-04-13T02:28:17.867Z,37.60
2023-04-13T02:30:44.999Z,37.83
2023-04-13T02:33:11.754Z,38.53
2023-04-13T02:35:40.862Z,37.40
2023-04-13T02:38:10.786Z,37.47
2023-04-13T02:40:38.907Z,41.73
2023-04-13T02:43:07.921Z,37.77
2023-04-13T02:45:37.563Z,41.63
2023-04-13T02:48:06.854Z,38.33
2023-04-13T02:50:35.891Z,39.73
2023-04-13T02:53:05.123Z,35.50
2023-04-13T02:55:32.061Z,39.87
2023-04-13T02:57:59.606Z,41.57
2023-04-13T03:00:29.331Z,39.40
2023-04-13T03:02:56.637Z,42.90
2023-04-13T03:05:23.518Z,42.00
2023-04-13T03:07:52.518Z,38.93
2023-04-13T03:10:23.654Z,39.97
2023-04-13T03:12:50.538Z,41.27
2023-04-13T03:15:18.297Z,40.47
2023-04-13T03:17:45.281Z,37.63
2023-04-13T03:20:16.697Z,38.43
2023-04-13T03:22:45.227Z,42.70
2023-04-13T03:25:14.456Z,39.07
2023-04-13T03:27:41.257Z,41.67
2023-04-13T03:30:09.041Z,40.13
2023-04-13T03:32:35.924Z,43.17
2023-04-13T03:35:02.784Z,41.90
2023-04-13T03:37:32.566Z,54.73
2023-04-13T03:39:59.451Z,43.87
2023-04-13T03:42:28.388Z,43.97
2023-04-13T03:44:55.172Z,45.80
2023-04-13T03:47:21.976Z,44.87
2023-04-13T03:49:48.734Z,49.70
2023-04-13T03:52:16.270Z,43.33
2023-04-13T03:54:45.401Z,47.07
2023-04-13T03:57:12.581Z,48.80
2023-04-13T03:59:39.337Z,41.27
2023-04-13T04:02:11.488Z,46.50
2023-04-13T04:04:38.445Z,48.73
2023-04-13T04:07:05.616Z,46.47
2023-04-13T04:09:34.538Z,47.30
2023-04-13T04:12:04.026Z,49.43
2023-04-13T04:14:30.975Z,47.43
2023-04-13T04:16:57.729Z,52.40
2023-04-13T04:19:26.917Z,52.97
2023-04-13T04:21:53.688Z,50.53
2023-04-13T04:24:23.719Z,48.43
2023-04-13T04:26:55.066Z,52.77
2023-04-13T04:29:33.963Z,42.77
2023-04-13T04:32:11.095Z,49.40
2023-04-13T04:34:38.825Z,45.87
2023-04-13T04:37:19.704Z,53.10
2023-04-13T04:39:48.046Z,49.47
2023-04-13T04:42:14.985Z,63.07
2023-04-13T04:44:44.979Z,50.67
2023-04-13T04:47:16.924Z,49.80
2023-04-13T04:49:44.027Z,50.97
2023-04-13T04:52:13.266Z,49.33
2023-04-13T04:54:40.058Z,55.47
2023-04-13T04:57:10.376Z,49.50
2023-04-13T04:59:37.173Z,51.40
2023-04-13T05:02:08.131Z,55.47
2023-04-13T05:04:34.988Z,48.47
2023-04-13T05:07:02.645Z,48.13
2023-04-13T05:09:29.428Z,42.90
2023-04-13T05:11:58.474Z,44.60
2023-04-13T05:14:25.253Z,42.23
2023-04-13T05:16:52.028Z,46.00
2023-04-13T05:19:18.782Z,41.53
2023-04-13T05:21:47.677Z,45.63
2023-04-13T05:24:14.426Z,46.27
2023-04-13T05:26:42.532Z,41.07
2023-04-13T05:29:12.016Z,40.73
2023-04-13T05:31:38.824Z,45.63
2023-04-13T05:34:11.775Z,40.13
2023-04-13T05:36:41.462Z,42.00
2023-04-13T05:39:10.967Z,44.77
2023-04-13T05:41:39.949Z,44.80
2023-04-13T05:44:06.937Z,50.17
2023-04-13T05:46:33.722Z,40.10
2023-04-13T05:49:03.535Z,38.40
2023-04-13T05:51:30.989Z,34.77
2023-04-13T05:53:57.973Z,32.10
2023-04-13T05:56:26.066Z,35.07
2023-04-13T05:58:55.455Z,30.80
2023-04-13T06:01:23.650Z,34.67
2023-04-13T06:03:56.134Z,38.70
2023-04-13T06:06:25.354Z,33.20
2023-04-13T06:08:53.107Z,29.70
2023-04-13T06:11:21.504Z,27.57
2023-04-13T06:13:50.810Z,26.00
2023-04-13T06:16:18.756Z,22.70
2023-04-13T06:18:45.533Z,24.40
2023-04-13T06:21:12.504Z,28.53
2023-04-13T06:23:39.302Z,37.07
2023-04-13T06:26:09.009Z,29.40
2023-04-13T06:28:36.037Z,34.20
2023-04-13T06:31:02.804Z,37.33
2023-04-13T06:33:29.628Z,39.23
2023-04-13T06:35:56.422Z,30.10
2023-04-13T06:38:23.204Z,33.83
2023-04-13T06:40:49.944Z,30.63
2023-04-13T06:43:28.764Z,31.40
2023-04-13T06:45:59.910Z,33.00
2023-04-13T06:48:27.194Z,35.90
2023-04-13T06:50:59.818Z,20.50
2023-04-13T06:53:26.646Z,30.93
2023-04-13T06:55:53.699Z,28.60
2023-04-13T06:58:23.370Z,23.53
2023-04-13T07:00:50.224Z,26.30
2023-04-13T07:03:19.288Z,26.10
2023-04-13T07:05:46.527Z,28.70
2023-04-13T07:08:13.350Z,30.43
2023-04-13T07:10:42.548Z,31.50
2023-04-13T07:13:09.277Z,24.13
2023-04-13T07:15:37.785Z,32.90
2023-04-13T07:18:04.841Z,26.70
2023-04-13T07:20:35.782Z,21.33
2023-04-13T07:23:04.799Z,25.40
2023-04-13T07:25:35.826Z,28.67
2023-04-13T07:28:07.456Z,25.70
2023-04-13T07:30:36.884Z,40.00
2023-04-13T07:33:06.137Z,23.03
2023-04-13T07:35:33.074Z,27.03
2023-04-13T07:37:59.999Z,32.20
2023-04-13T07:40:26.785Z,27.70
2023-04-13T07:42:55.805Z,26.07
2023-04-13T07:45:25.027Z,29.23
2023-04-13T07:47:54.752Z,26.73
2023-04-13T07:50:21.762Z,26.67
2023-04-13T07:52:48.625Z,25.97
2023-04-13T07:55:15.369Z,28.17
2023-04-13T07:57:42.149Z,28.30
2023-04-13T08:00:14.287Z,24.93
2023-04-13T08:02:42.297Z,26.43
2023-04-13T08:05:10.176Z,24.10
2023-04-13T08:07:39.553Z,27.13
2023-04-13T08:10:09.615Z,23.23
2023-04-13T08:12:38.693Z,26.23
2023-04-13T08:15:05.954Z,21.90
2023-04-13T08:17:34.047Z,20.97
2023-04-13T08:20:04.128Z,20.90
2023-04-13T08:22:33.364Z,20.13
2023-04-13T08:25:02.518Z,22.83
2023-04-13T08:27:29.359Z,19.37
2023-04-13T08:30:01.811Z,27.27
2023-04-13T08:32:28.998Z,18.80
2023-04-13T08:34:56.223Z,18.50
2023-04-13T08:37:26.736Z,18.73
2023-04-13T08:39:59.550Z,17.57
2023-04-13T08:42:29.374Z,18.70
2023-04-13T08:45:01.354Z,22.03
2023-04-13T08:47:28.300Z,18.73
2023-04-13T08:50:01.547Z,20.20
2023-04-13T08:52:29.021Z,21.77
2023-04-13T08:54:57.591Z,17.87
2023-04-13T08:57:24.481Z,18.50
2023-04-13T08:59:52.395Z,18.97
2023-04-13T09:02:28.854Z,18.90
2023-04-13T09:04:58.036Z,17.57
2023-04-13T09:07:28.321Z,16.17
2023-04-13T09:10:01.666Z,17.70
2023-04-13T09:12:32.237Z,16.17
2023-04-13T09:14:59.009Z,16.93
2023-04-13T09:17:30.652Z,18.70
2023-04-13T09:19:58.082Z,16.97
2023-04-13T09:22:26.230Z,17.37
2023-04-13T09:24:55.302Z,17.07
2023-04-13T09:27:24.903Z,14.87
2023-04-13T09:29:52.843Z,18.43
2023-04-13T09:32:23.885Z,18.27
2023-04-13T09:35:05.899Z,14.80
2023-04-13T09:37:33.059Z,15.83
2023-04-13T09:40:14.872Z,20.53
2023-04-13T09:42:53.098Z,21.27
2023-04-13T09:45:20.055Z,18.73
2023-04-13T09:47:49.642Z,20.23
2023-04-13T09:50:22.482Z,15.57
2023-04-13T09:52:59.636Z,16.93
2023-04-13T09:55:29.401Z,14.37
2023-04-13T09:57:56.311Z,16.33
2023-04-13T10:00:25.799Z,18.70
2023-04-13T10:02:52.909Z,14.80
2023-04-13T10:05:20.105Z,16.80
2023-04-13T10:07:47.225Z,18.00
2023-04-13T10:10:14.221Z,18.50
2023-04-13T10:12:49.386Z,14.27
2023-04-13T10:15:58.000Z,14.63
2023-04-13T10:18:32.421Z,15.17
2023-04-13T10:20:59.780Z,16.17
2023-04-13T10:23:29.154Z,15.17
2023-04-13T10:26:00.692Z,13.80
2023-04-13T10:28:27.623Z,13.80
2023-04-13T10:30:56.916Z,17.33
2023-04-13T10:33:24.048Z,14.57
2023-04-13T10:35:58.027Z,13.60
2023-04-13T10:38:24.933Z,14.57
2023-04-13T10:40:52.115Z,11.67
2023-04-13T10:43:31.898Z,13.57
2023-04-13T10:46:13.548Z,12.00
2023-04-13T10:48:43.418Z,15.23
2023-04-13T10:51:10.239Z,18.13
2023-04-13T10:53:36.980Z,12.63
2023-04-13T10:56:14.738Z,13.60
2023-04-13T10:58:44.092Z,13.23
2023-04-13T11:01:11.181Z,14.47
2023-04-13T11:03:38.097Z,15.77
2023-04-13T11:06:08.367Z,13.57
2023-04-13T11:08:39.346Z,15.60
2023-04-13T11:11:14.854Z,10.67
2023-04-13T11:13:49.177Z,17.07
2023-04-13T11:16:18.354Z,12.80
2023-04-13T11:18:45.126Z,12.43
2023-04-13T11:21:20.625Z,9.70
2023-04-13T11:23:56.442Z,12.17
2023-04-13T11:26:33.941Z,10.70
2023-04-13T11:29:04.023Z,10.87
2023-04-13T11:31:42.005Z,10.77
2023-04-13T11:34:11.377Z,11.38
2023-04-13T11:36:40.987Z,13.70
2023-04-13T11:39:10.989Z,9.07
2023-04-13T11:41:44.274Z,9.32
2023-04-13T11:44:14.698Z,10.35
2023-04-13T11:46:43.771Z,14.63
2023-04-13T11:49:10.643Z,11.88
2023-04-13T11:51:37.728Z,10.07
2023-04-13T11:54:04.592Z,13.70
2023-04-13T11:56:34.149Z,8.73
2023-04-13T11:59:01.165Z,12.13
2023-04-13T12:01:33.604Z,11.32
2023-04-13T12:04:15.004Z,11.48
2023-04-13T12:06:45.922Z,12.77
2023-04-13T12:09:17.786Z,13.10
2023-04-13T12:12:08.278Z,10.00
2023-04-13T12:14:54.553Z,12.40
2023-04-13T12:17:43.716Z,7.97
2023-04-13T12:20:16.548Z,10.57
2023-04-13T12:25:20.297Z,9.73
2023-04-13T12:27:51.385Z,11.45
2023-04-13T12:30:21.289Z,11.20
2023-04-13T12:32:50.674Z,7.97
2023-04-13T12:35:19.437Z,10.15
2023-04-13T12:37:47.347Z,11.80
2023-04-13T12:40:15.698Z,8.83
2023-04-13T12:42:46.340Z,8.37
2023-04-13T12:45:14.060Z,9.00
2023-04-13T12:47:45.463Z,7.57
2023-04-13T12:50:12.671Z,7.47
2023-04-13T12:52:42.096Z,14.67
2023-04-13T12:55:11.708Z,11.13
2023-04-13T12:57:39.779Z,9.70
2023-04-13T13:00:12.702Z,7.37
2023-04-13T13:02:39.798Z,9.50
2023-04-13T13:05:07.217Z,9.53
2023-04-13T13:07:33.955Z,8.17
2023-04-13T13:10:01.961Z,9.10
2023-04-13T13:12:31.446Z,12.03
2023-04-13T13:14:58.665Z,12.13
2023-04-13T13:17:25.474Z,9.20
2023-04-13T13:19:54.784Z,7.43
2023-04-13T13:22:23.937Z,7.77
2023-04-13T13:24:50.832Z,8.03
2023-04-13T13:29:49.815Z,7.13
2023-04-13T13:32:20.131Z,6.47
2023-04-13T13:34:49.422Z,7.43
2023-04-13T13:37:18.750Z,6.73
2023-04-13T13:39:45.768Z,7.30
2023-04-13T13:42:12.600Z,6.97
2023-04-13T13:44:39.429Z,5.80
2023-04-13T13:47:08.465Z,7.27
2023-04-13T13:49:38.280Z,4.83
2023-04-13T13:52:05.118Z,5.93
2023-04-13T13:54:31.880Z,7.93
2023-04-13T13:56:58.642Z,6.47
2023-04-13T13:59:29.850Z,4.60
2023-04-13T14:01:56.793Z,4.90
2023-04-13T14:04:26.040Z,11.30
2023-04-13T14:06:52.820Z,4.43
2023-04-13T14:09:19.668Z,4.10
2023-04-13T14:11:46.446Z,5.77
2023-04-13T14:14:21.015Z,4.63
2023-04-13T14:16:48.864Z,6.20
2023-04-13T14:19:18.788Z,9.07
2023-04-13T14:21:49.069Z,10.33
2023-04-13T14:24:15.917Z,4.30
2023-04-13T14:26:42.775Z,5.10
2023-04-13T14:29:11.911Z,5.37
2023-04-13T14:31:38.792Z,3.70
2023-04-13T14:34:05.591Z,5.33
2023-04-13T14:36:34.516Z,5.67
2023-04-13T14:39:04.947Z,4.07
2023-04-13T14:41:31.755Z,4.93
2023-04-13T14:43:58.515Z,3.33
2023-04-13T14:46:27.966Z,8.13
2023-04-13T14:48:54.819Z,4.77
2023-04-13T14:51:22.027Z,3.70
2023-04-13T14:53:49.364Z,4.03
2023-04-13T14:56:16.609Z,3.87
2023-04-13T14:58:46.003Z,4.03
2023-04-13T15:01:17.700Z,8.20
2023-04-13T15:03:46.363Z,4.70
2023-04-13T15:06:14.160Z,5.83
2023-04-13T15:08:43.164Z,7.40
2023-04-13T15:11:10.211Z,5.67
2023-04-13T15:13:39.670Z,5.30
2023-04-13T15:16:07.915Z,8.23
2023-04-13T15:18:34.804Z,5.23
2023-04-13T15:21:04.875Z,6.47
2023-04-13T15:23:32.364Z,6.73
2023-04-13T15:26:00.990Z,5.23
2023-04-13T15:28:30.802Z,8.30
2023-04-13T15:30:57.671Z,5.37
2023-04-13T15:33:24.505Z,4.50
2023-04-13T15:35:51.972Z,7.20
2023-04-13T15:38:18.775Z,10.83
2023-04-13T15:40:47.996Z,5.00
2023-04-13T15:43:14.811Z,4.50
2023-04-13T15:45:41.622Z,6.13
2023-04-13T15:48:11.185Z,6.63
2023-04-13T15:50:42.668Z,5.17
2023-04-13T15:53:09.455Z,4.80
2023-04-13T15:55:36.222Z,6.07
2023-04-13T15:58:03.835Z,5.57
2023-04-13T16:00:31.565Z,4.57
2023-04-13T16:02:58.493Z,5.70
2023-04-13T16:05:28.435Z,7.20
2023-04-13T16:07:59.103Z,3.93
2023-04-13T16:10:25.953Z,5.90
2023-04-13T16:12:55.133Z,5.50
2023-04-13T16:15:22.920Z,4.37
2023-04-13T16:17:51.953Z,4.83
2023-04-13T16:20:19.822Z,8.33
2023-04-13T16:22:51.917Z,5.20
2023-04-13T16:25:21.334Z,5.63
2023-04-13T16:27:50.663Z,8.20
2023-04-13T16:30:17.962Z,5.27
2023-04-13T16:32:45.129Z,6.03
2023-04-13T16:35:12.490Z,5.40
2023-04-13T16:37:41.108Z,6.50
2023-04-13T16:40:11.364Z,4.80
2023-04-13T16:42:39.187Z,4.43
2023-04-13T16:45:07.474Z,4.90
2023-04-13T16:47:34.346Z,7.77
2023-04-13T16:50:03.483Z,6.77
2023-04-13T16:52:31.842Z,6.33
2023-04-13T16:55:01.572Z,5.77
2023-04-13T16:57:28.582Z,4.90
2023-04-13T16:59:56.441Z,6.20
2023-04-13T17:02:31.264Z,6.53
2023-04-13T17:04:58.360Z,7.57
2023-04-13T17:07:28.236Z,5.93
2023-04-13T17:09:55.423Z,8.13
2023-04-13T17:12:22.720Z,6.83
2023-04-13T17:14:49.767Z,5.87
2023-04-13T17:17:19.044Z,5.57
2023-04-13T17:19:48.345Z,5.23
2023-04-13T17:22:17.544Z,7.10
2023-04-13T17:24:44.308Z,11.33
2023-04-13T17:27:13.821Z,6.87
2023-04-13T17:29:40.745Z,9.33
2023-04-13T17:32:07.688Z,9.27
2023-04-13T17:34:36.817Z,7.67
2023-04-13T17:37:03.917Z,10.83
2023-04-13T17:39:30.951Z,9.47
2023-04-13T17:41:59.869Z,9.23
2023-04-13T17:44:29.093Z,13.10
2023-04-13T17:46:56.039Z,9.40
2023-04-13T17:49:22.806Z,14.00
2023-04-13T17:51:51.917Z,12.17
2023-04-13T17:54:21.111Z,15.20
2023-04-13T17:56:47.865Z,15.10
2023-04-13T17:59:14.958Z,14.40
2023-04-13T18:01:43.470Z,11.53
2023-04-13T18:04:11.889Z,16.67
2023-04-13T18:06:39.122Z,15.37
2023-04-13T18:09:12.705Z,21.10
2023-04-13T18:11:39.824Z,15.37
2023-04-13T18:14:08.960Z,18.13
2023-04-13T18:16:38.517Z,17.93
2023-04-13T18:19:05.878Z,22.17
2023-04-13T18:21:36.777Z,15.23
2023-04-13T18:24:06.001Z,24.57
2023-04-13T18:26:35.163Z,19.93
2023-04-13T18:29:02.301Z,22.67
2023-04-13T18:31:32.294Z,16.57
2023-04-13T18:33:59.427Z,19.37
2023-04-13T18:36:26.829Z,23.60
2023-04-13T18:38:54.932Z,17.97
2023-04-13T18:41:22.264Z,22.03
2023-04-13T18:43:49.277Z,23.90
2023-04-13T18:46:18.290Z,26.13
2023-04-13T18:48:45.032Z,22.90
2023-04-13T18:51:14.303Z,24.67
2023-04-13T18:53:41.117Z,27.83
2023-04-13T18:56:07.946Z,21.20
2023-04-13T18:58:34.747Z,23.87
2023-04-13T19:01:01.535Z,28.77
2023-04-13T19:03:28.745Z,21.40
2023-04-13T19:05:58.127Z,23.17
2023-04-13T19:08:24.900Z,24.23
2023-04-13T19:10:51.648Z,22.50
2023-04-13T19:13:18.467Z,21.67
2023-04-13T19:15:47.592Z,23.23
2023-04-13T19:18:16.635Z,30.53
2023-04-13T19:20:43.445Z,25.07
2023-04-13T19:23:10.368Z,26.13
2023-04-13T19:25:37.219Z,23.60
2023-04-13T19:28:04.138Z,25.83
2023-04-13T19:30:33.333Z,22.30
2023-04-13T19:33:00.684Z,29.23
2023-04-13T19:35:28.717Z,24.80
2023-04-13T19:37:55.550Z,27.53
2023-04-13T19:40:23.234Z,29.60
2023-04-13T19:42:52.569Z,30.07
2023-04-13T19:45:19.349Z,29.87
2023-04-13T19:47:49.145Z,28.97
2023-04-13T19:50:20.966Z,30.57
2023-04-13T19:52:52.220Z,23.47
2023-04-13T19:55:19.063Z,32.50
2023-04-13T19:57:46.410Z,32.53
2023-04-13T20:00:22.952Z,30.77
2023-04-13T20:02:53.018Z,29.20
2023-04-13T20:05:20.304Z,26.10
2023-04-13T20:07:47.217Z,26.33
2023-04-13T20:10:16.176Z,28.43
2023-04-13T20:12:42.950Z,26.97
2023-04-13T20:15:09.913Z,23.93
2023-04-13T20:17:39.166Z,24.57
2023-04-13T20:20:06.734Z,28.20
2023-04-13T20:22:33.529Z,24.57
2023-04-13T20:25:00.396Z,23.33
2023-04-13T20:27:30.340Z,21.83
2023-04-13T20:29:57.232Z,19.33
2023-04-13T20:32:26.390Z,19.50
2023-04-13T20:34:55.424Z,21.37
2023-04-13T20:37:24.582Z,17.23
2023-04-13T20:39:53.722Z,20.40
2023-04-13T20:42:23.526Z,16.90
2023-04-13T20:44:57.674Z,21.07
2023-04-13T20:47:28.363Z,17.53
2023-04-13T20:49:57.610Z,17.13
2023-04-13T20:52:29.904Z,17.80
2023-04-13T20:54:56.673Z,18.20
2023-04-13T20:57:23.450Z,17.23
2023-04-13T20:59:51.997Z,16.13
2023-04-13T21:02:21.275Z,20.27
2023-04-13T21:04:48.112Z,21.80
2023-04-13T21:07:17.231Z,19.43
2023-04-13T21:09:46.514Z,19.30
2023-04-13T21:12:13.273Z,20.33
2023-04-13T21:14:40.053Z,17.80
2023-04-13T21:17:06.900Z,23.90
2023-04-13T21:19:35.070Z,16.87
2023-04-13T21:22:05.593Z,16.23
2023-04-13T21:24:32.402Z,18.53
2023-04-13T21:27:01.709Z,16.47
2023-04-13T21:29:30.879Z,20.63
2023-04-13T21:31:58.173Z,18.13
2023-04-13T21:34:27.272Z,21.13
2023-04-13T21:36:54.174Z,17.17
2023-04-13T21:39:23.540Z,14.90
2023-04-13T21:41:50.310Z,19.03
2023-04-13T21:46:49.273Z,15.97
2023-04-13T21:49:18.198Z,15.37
2023-04-13T21:51:52.642Z,16.40
2023-04-13T21:54:19.440Z,16.63
2023-04-13T21:56:49.079Z,17.93
2023-04-13T21:59:15.887Z,16.80
2023-04-13T22:01:42.771Z,18.33
2023-04-13T22:04:09.751Z,17.30
2023-04-13T22:06:39.133Z,19.80
2023-04-13T22:09:06.127Z,20.73
2023-04-13T22:11:35.347Z,15.27
2023-04-13T22:14:02.137Z,13.63
2023-04-13T22:16:29.025Z,14.50
2023-04-13T22:18:56.016Z,13.87
2023-04-13T22:21:22.770Z,18.03
2023-04-13T22:23:49.684Z,15.00
2023-04-13T22:26:18.660Z,14.30
2023-04-13T22:28:45.840Z,13.60
2023-04-13T22:31:12.690Z,13.80
2023-04-13T22:33:40.525Z,13.33
2023-04-13T22:36:16.557Z,16.83
2023-04-13T22:38:43.321Z,15.77
2023-04-13T22:41:10.245Z,16.07
2023-04-13T22:43:37.435Z,13.83
2023-04-13T22:46:06.402Z,17.83
2023-04-13T22:48:35.746Z,18.80
2023-04-13T22:51:03.705Z,14.87
2023-04-13T22:53:35.075Z,14.60
2023-04-13T22:56:01.894Z,14.57
2023-04-13T22:58:28.730Z,14.33
2023-04-13T23:00:58.102Z,13.77
2023-04-13T23:03:24.920Z,13.70
2023-04-13T23:05:54.100Z,14.57
2023-04-13T23:08:20.958Z,14.90
2023-04-13T23:10:49.913Z,14.03
2023-04-13T23:13:18.999Z,14.07
2023-04-13T23:15:45.865Z,16.90
2023-04-13T23:18:12.678Z,13.67
2023-04-13T23:20:39.448Z,14.57
2023-04-13T23:23:06.258Z,14.60
2023-04-13T23:25:33.051Z,14.27
2023-04-13T23:28:02.227Z,13.87
2023-04-13T23:30:31.486Z,14.13
2023-04-13T23:33:00.853Z,13.60
2023-04-13T23:35:30.341Z,12.53
2023-04-13T23:37:59.580Z,13.33
2023-04-13T23:40:26.350Z,16.07
2023-04-13T23:42:53.174Z,12.00
2023-04-13T23:45:22.531Z,13.73
2023-04-13T23:47:49.337Z,14.90
2023-04-13T23:50:17.980Z,17.53
2023-04-13T23:52:44.804Z,15.10
2023-04-13T23:55:16.339Z,17.17
2023-04-13T23:57:43.085Z,14.00
